Time;durP1;ratioP1;P1;durP2;ratioP2;P2;SDS_P1;SDS_P2;PMS_P1;PMS_P2;Temp;Humidity;BMP_temperature;BMP_pressure;BME280_temperature;BME280_humidity;BME280_pressure;Samples;Min_cycle;Max_cycle;Signal;HPM_P1;HPM_P2
2022/08/13 00:02:03;;;;;;;2.83;2.63;;;13.40;99.90;14.70;96887.00;;;;5083682;28;20227;-70
2022/08/13 00:04:56;;;;;;;2.23;2.03;;;13.40;99.90;14.50;96884.00;;;;5081192;28;20198;-70
2022/08/13 00:07:44;;;;;;;3.50;2.30;;;13.40;99.90;14.10;96883.00;;;;5076458;28;20207;-70
2022/08/13 00:10:33;;;;;;;2.70;2.50;;;13.40;99.90;14.20;96874.00;;;;5069722;28;20215;-70
2022/08/13 00:13:24;;;;;;;2.47;2.23;;;13.30;99.90;14.30;96876.00;;;;5074328;28;20198;-71
2022/08/13 00:16:13;;;;;;;3.87;2.23;;;13.30;99.90;14.40;96873.00;;;;5077353;28;20202;-70
2022/08/13 00:19:02;;;;;;;3.70;2.47;;;13.30;99.90;14.50;96880.00;;;;5075076;28;20195;-70
2022/08/13 00:21:50;;;;;;;2.63;2.00;;;13.40;99.90;14.70;96875.00;;;;5075693;28;20243;-71
2022/08/13 00:24:39;;;;;;;2.67;2.47;;;13.40;99.90;14.80;96864.00;;;;5074156;28;20187;-70
2022/08/13 00:27:29;;;;;;;3.13;2.47;;;13.40;99.90;14.70;96858.00;;;;5077904;28;20206;-70
2022/08/13 00:30:19;;;;;;;2.07;1.87;;;13.50;99.90;14.30;96863.00;;;;5070590;28;20192;-69
2022/08/13 00:33:12;;;;;;;2.70;2.50;;;13.40;99.90;14.40;96863.00;;;;5078028;28;20204;-71
2022/08/13 00:36:01;;;;;;;2.70;2.50;;;13.40;99.90;14.60;96857.00;;;;5070364;28;20203;-70
2022/08/13 00:38:52;;;;;;;2.67;2.50;;;13.40;99.90;14.60;96846.00;;;;5074444;28;20215;-70
2022/08/13 00:41:45;;;;;;;2.50;2.20;;;13.40;99.90;14.60;96851.00;;;;5075867;28;20239;-71
2022/08/13 00:44:33;;;;;;;3.13;2.90;;;13.50;99.90;14.60;96850.00;;;;5080478;28;20199;-70
2022/08/13 00:50:35;;;;;;;4.33;2.90;;;13.50;99.90;14.80;96839.00;;;;5083839;28;20204;-70
2022/08/13 00:53:26;;;;;;;3.60;3.20;;;13.50;99.90;14.90;96847.00;;;;5081184;28;20199;-70
2022/08/13 00:56:15;;;;;;;3.17;2.97;;;13.60;99.90;14.90;96839.00;;;;5084131;28;20204;-70
2022/08/13 00:59:10;;;;;;;2.87;2.67;;;13.60;99.90;15.00;96837.00;;;;5081830;28;20207;-70
2022/08/13 01:01:59;;;;;;;3.13;2.37;;;13.70;99.90;15.10;96834.00;;;;5076858;28;20226;-70
2022/08/13 01:04:49;;;;;;;2.43;2.20;;;13.80;99.90;15.20;96829.00;;;;5084163;28;20669;-70
2022/08/13 01:07:41;;;;;;;3.27;2.70;;;13.80;99.90;15.00;96838.00;;;;5081821;28;20207;-69
2022/08/13 01:10:30;;;;;;;2.70;2.50;;;13.90;99.90;14.80;96827.00;;;;5088950;28;20244;-70
2022/08/13 01:13:22;;;;;;;2.07;1.97;;;13.80;99.90;14.60;96821.00;;;;5073439;28;20210;-70
2022/08/13 01:16:14;;;;;;;3.97;2.77;;;13.80;99.90;14.80;96824.00;;;;5073921;28;20200;-70
2022/08/13 01:19:06;;;;;;;2.50;2.30;;;14.50;99.90;15.10;96827.00;;;;5078028;28;20211;-70
2022/08/13 01:21:57;;;;;;;3.10;2.80;;;13.80;99.90;15.20;96815.00;;;;5077794;28;20224;-70
2022/08/13 01:24:46;;;;;;;2.63;2.43;;;13.80;99.90;15.00;96820.00;;;;5081108;28;20594;-71
2022/08/13 01:27:41;;;;;;;2.47;2.27;;;13.90;99.90;15.10;96800.00;;;;5080953;28;20196;-70
2022/08/13 01:30:33;;;;;;;4.80;2.57;;;13.80;99.90;15.20;96789.00;;;;5071326;28;20199;-70
2022/08/13 01:33:24;;;;;;;5.27;2.90;;;13.90;99.90;14.90;96798.00;;;;5070825;28;20203;-70
2022/08/13 01:36:13;;;;;;;3.50;2.57;;;13.90;99.90;15.00;96795.00;;;;5072128;28;20203;-70
2022/08/13 01:39:05;;;;;;;3.60;2.47;;;13.80;99.90;15.10;96802.00;;;;5076378;28;20577;-71
2022/08/13 01:41:55;;;;;;;2.60;2.40;;;13.90;99.90;15.20;96788.00;;;;5078376;28;20227;-71
2022/08/13 01:44:46;;;;;;;3.17;2.87;;;13.90;99.90;15.00;96801.00;;;;5068999;28;20192;-70
2022/08/13 01:50:41;;;;;;;2.87;2.50;;;13.90;99.90;14.90;96798.00;;;;5079140;28;20582;-70
2022/08/13 01:53:30;;;;;;;2.23;2.13;;;13.80;99.90;14.80;96791.00;;;;5075094;28;20209;-71
2022/08/13 01:56:22;;;;;;;3.63;2.63;;;13.80;99.90;14.90;96786.00;;;;5085257;28;20206;-70
2022/08/13 01:59:11;;;;;;;2.53;2.30;;;13.80;99.90;14.80;96791.00;;;;5084062;28;20203;-71
2022/08/13 02:02:01;;;;;;;2.77;2.57;;;13.70;99.90;14.60;96788.00;;;;5073591;28;20224;-70
2022/08/13 02:04:50;;;;;;;4.17;3.17;;;13.70;99.90;14.50;96784.00;;;;5076054;28;20208;-70
2022/08/13 02:07:40;;;;;;;2.87;2.57;;;13.60;99.90;14.40;96774.00;;;;5074417;28;20620;-70
2022/08/13 02:10:29;;;;;;;3.40;2.90;;;13.60;99.90;14.50;96772.00;;;;5081491;28;20695;-70
2022/08/13 02:13:22;;;;;;;3.37;3.03;;;13.60;99.90;14.70;96774.00;;;;5081477;28;20200;-70
2022/08/13 02:16:11;;;;;;;3.10;2.77;;;13.60;99.90;14.30;96780.00;;;;5076630;28;20701;-69
2022/08/13 02:19:00;;;;;;;7.30;3.17;;;13.60;99.90;14.30;96766.00;;;;5081473;28;20678;-71
2022/08/13 02:21:49;;;;;;;5.10;2.97;;;13.50;99.90;14.30;96777.00;;;;5079370;28;20235;-72
2022/08/13 02:24:38;;;;;;;7.40;2.97;;;13.50;99.90;14.70;96772.00;;;;5071512;28;20666;-69
2022/08/13 02:27:27;;;;;;;5.07;3.23;;;13.50;99.90;14.90;96767.00;;;;5077727;28;20206;-70
2022/08/13 02:30:17;;;;;;;4.03;3.67;;;13.60;99.90;14.90;96764.00;;;;5081174;28;20195;-69
2022/08/13 02:33:07;;;;;;;3.30;3.00;;;13.60;99.90;14.90;96753.00;;;;5073601;28;20721;-72
2022/08/13 02:35:55;;;;;;;6.30;3.57;;;13.60;99.90;14.90;96751.00;;;;5085003;28;20210;-70
2022/08/13 02:38:44;;;;;;;3.30;3.00;;;13.70;99.90;14.90;96747.00;;;;5074463;28;20211;-70
2022/08/13 02:41:43;;;;;;;3.67;3.37;;;13.70;99.90;14.80;96748.00;;;;5073678;28;20211;-70
2022/08/13 02:44:32;;;;;;;3.27;2.87;;;13.70;99.90;14.60;96751.00;;;;5070261;28;20225;-70
2022/08/13 02:47:25;;;;;;;5.00;3.60;;;13.70;99.90;14.80;96756.00;;;;5077276;28;20199;-69
2022/08/13 02:50:14;;;;;;;3.93;3.47;;;13.70;99.90;14.80;96758.00;;;;5078507;28;20813;-70
2022/08/13 02:53:01;;;;;;;5.57;3.87;;;13.70;99.90;14.90;96756.00;;;;5076367;28;20684;-70
2022/08/13 02:55:51;;;;;;;3.80;3.03;;;13.70;99.90;14.60;96763.00;;;;5075971;28;20203;-70
2022/08/13 02:58:41;;;;;;;4.17;3.60;;;13.70;99.90;14.90;96763.00;;;;5071049;28;20195;-70
2022/08/13 03:01:33;;;;;;;3.77;3.47;;;13.70;99.90;14.90;96750.00;;;;5075190;28;20220;-71
2022/08/13 03:04:23;;;;;;;3.40;3.13;;;13.70;99.90;15.00;96754.00;;;;5074763;28;20301;-70
2022/08/13 03:07:12;;;;;;;3.67;3.40;;;13.70;99.90;15.00;96748.00;;;;5079078;28;20199;-70
2022/08/13 03:10:01;;;;;;;3.80;3.50;;;13.70;99.90;15.00;96744.00;;;;5079859;28;20233;-71
2022/08/13 03:12:58;;;;;;;5.70;4.20;;;13.80;99.90;15.10;96747.00;;;;5078205;28;20227;-71
2022/08/13 03:15:49;;;;;;;5.43;4.10;;;13.80;99.90;14.90;96749.00;;;;5070007;28;20561;-70
2022/08/13 03:18:38;;;;;;;4.03;3.43;;;13.80;99.90;14.80;96742.00;;;;5077256;28;20210;-70
2022/08/13 03:21:32;;;;;;;3.77;3.40;;;13.80;99.90;14.60;96720.00;;;;5075916;28;20843;-72
2022/08/13 03:24:22;;;;;;;3.80;3.50;;;13.70;99.90;14.80;96743.00;;;;5073572;28;20234;-70
2022/08/13 03:27:11;;;;;;;3.93;3.53;;;13.70;99.90;14.80;96740.00;;;;5073780;28;20196;-69
2022/08/13 03:30:00;;;;;;;3.60;3.30;;;13.70;99.90;14.30;96721.00;;;;5073682;28;20196;-72
2022/08/13 03:32:51;;;;;;;4.17;3.77;;;13.60;99.90;14.80;96741.00;;;;5081978;28;20227;-71
2022/08/13 03:35:40;;;;;;;4.30;3.57;;;13.60;99.90;15.10;96739.00;;;;5080547;28;20735;-70
2022/08/13 03:38:30;;;;;;;3.90;3.60;;;13.70;99.90;15.20;96731.00;;;;5075484;28;20196;-70
2022/08/13 03:41:18;;;;;;;3.83;3.53;;;13.80;99.90;14.90;96740.00;;;;5072792;28;20607;-70
2022/08/13 03:44:07;;;;;;;4.03;3.70;;;13.80;99.90;15.10;96758.00;;;;5072611;28;20220;-71
2022/08/13 03:46:56;;;;;;;7.67;6.47;;;13.90;99.90;15.30;96788.00;;;;5071129;28;20674;-70
2022/08/13 03:49:46;;;;;;;10.00;7.30;;;13.90;99.90;15.50;96793.00;;;;5078233;28;20671;-70
2022/08/13 03:52:35;;;;;;;7.60;6.80;;;14.00;99.90;15.60;96791.00;;;;5071947;28;20222;-71
2022/08/13 03:55:25;;;;;;;9.53;7.33;;;14.10;99.90;15.70;96776.00;;;;5073498;28;20204;-71
2022/08/13 03:58:15;;;;;;;10.73;6.60;;;14.20;99.90;15.90;96762.00;;;;5072793;28;20199;-71
2022/08/13 04:01:05;;;;;;;6.63;5.93;;;14.30;99.90;16.00;96768.00;;;;5078449;28;20231;-71
2022/08/13 04:03:54;;;;;;;6.27;5.67;;;14.40;99.90;16.00;96768.00;;;;5071071;28;20223;-71
2022/08/13 04:06:43;;;;;;;7.47;6.60;;;14.50;99.90;16.00;96773.00;;;;5079749;28;20199;-70
2022/08/13 04:09:31;;;;;;;7.80;6.03;;;14.60;99.90;16.00;96767.00;;;;5080037;28;20207;-70
2022/08/13 04:12:22;;;;;;;8.50;6.17;;;14.60;99.90;16.10;96771.00;;;;5077678;28;20215;-72
2022/08/13 04:15:11;;;;;;;6.13;5.17;;;14.70;99.90;16.30;96769.00;;;;5086883;28;20207;-71
2022/08/13 04:17:59;;;;;;;6.40;5.63;;;14.80;99.90;16.40;96758.00;;;;5080953;28;20212;-71
2022/08/13 04:20:52;;;;;;;6.17;5.57;;;14.90;99.90;16.20;96769.00;;;;5077878;28;20207;-70
2022/08/13 04:23:41;;;;;;;8.27;6.87;;;14.90;99.90;16.10;96764.00;;;;5080169;28;20246;-70
2022/08/13 04:26:30;;;;;;;9.43;6.67;;;14.90;99.90;16.00;96766.00;;;;5071779;28;20195;-70
2022/08/13 04:29:21;;;;;;;8.23;6.30;;;14.90;99.90;16.10;96772.00;;;;5073851;28;20283;-70
2022/08/13 04:32:10;;;;;;;7.30;6.37;;;14.90;99.90;16.20;96774.00;;;;5077764;28;20218;-71
2022/08/13 04:35:01;;;;;;;7.87;7.07;;;14.90;99.90;16.00;96760.00;;;;5085714;28;20204;-70
2022/08/13 04:37:51;;;;;;;6.30;5.70;;;14.90;99.90;16.10;96759.00;;;;5089543;28;20207;-69
2022/08/13 04:40:43;;;;;;;7.77;7.00;;;14.90;99.90;16.20;96763.00;;;;5085754;28;20698;-70
2022/08/13 04:43:32;;;;;;;10.33;9.43;;;14.90;99.90;16.20;96762.00;;;;5076560;28;20227;-70
2022/08/13 04:46:22;;;;;;;7.47;6.67;;;14.90;99.90;16.30;96773.00;;;;5072553;28;20570;-70
2022/08/13 04:49:12;;;;;;;7.30;6.47;;;14.90;99.90;16.20;96763.00;;;;5083918;28;20200;-70
2022/08/13 04:52:01;;;;;;;6.73;6.07;;;14.90;99.90;16.10;96762.00;;;;5084344;28;20640;-70
2022/08/13 04:54:50;;;;;;;7.40;6.13;;;14.90;99.90;16.10;96763.00;;;;5082829;28;20204;-70
2022/08/13 04:57:41;;;;;;;5.80;5.30;;;14.90;99.90;16.20;96771.00;;;;5074027;28;20188;-70
2022/08/13 05:00:32;;;;;;;7.90;6.83;;;14.90;99.90;16.30;96763.00;;;;5082313;28;20218;-70
2022/08/13 05:03:23;;;;;;;6.20;5.63;;;14.90;99.90;16.30;96762.00;;;;5078105;28;20284;-70
2022/08/13 05:06:19;;;;;;;6.67;6.07;;;15.00;99.90;16.30;96766.00;;;;5078561;28;20199;-70
2022/08/13 05:09:07;;;;;;;6.43;5.83;;;15.00;99.90;16.40;96761.00;;;;5087322;28;20199;-71
2022/08/13 05:11:56;;;;;;;9.57;6.10;;;15.00;99.90;16.40;96764.00;;;;5087026;28;20250;-70
2022/08/13 05:14:46;;;;;;;7.63;6.60;;;15.10;99.90;16.00;96760.00;;;;5084639;28;20863;-70
2022/08/13 05:17:34;;;;;;;7.63;6.90;;;15.00;99.90;15.80;96762.00;;;;5091547;28;20199;-71
2022/08/13 05:20:25;;;;;;;8.87;7.10;;;14.90;99.90;16.10;96762.00;;;;5078802;28;20191;-71
2022/08/13 05:23:15;;;;;;;7.60;6.90;;;14.90;99.90;16.30;96756.00;;;;5073672;28;20223;-71
2022/08/13 05:26:04;;;;;;;8.57;6.73;;;14.90;99.90;16.30;96758.00;;;;5076189;28;20206;-71
2022/08/13 05:29:02;;;;;;;6.70;6.10;;;15.00;99.90;16.30;96760.00;;;;5087202;28;20195;-71
2022/08/13 05:31:54;;;;;;;8.17;6.53;;;15.00;99.90;16.20;96747.00;;;;5075667;28;20725;-70
2022/08/13 05:34:44;;;;;;;6.97;6.13;;;15.00;99.90;16.20;96755.00;;;;5078949;28;20199;-70
2022/08/13 05:37:35;;;;;;;8.07;7.03;;;15.00;99.90;16.30;96749.00;;;;5075235;28;20677;-70
2022/08/13 05:40:23;;;;;;;8.07;7.03;;;15.00;99.90;16.30;96749.00;;;;5073814;28;20207;-70
2022/08/13 05:43:15;;;;;;;7.80;6.60;;;15.00;99.90;16.20;96754.00;;;;5081961;28;20211;-70
2022/08/13 05:46:08;;;;;;;8.37;7.13;;;15.00;99.90;16.20;96751.00;;;;5082245;28;20203;-70
2022/08/13 05:48:57;;;;;;;8.50;7.03;;;15.00;99.90;16.30;96760.00;;;;5077941;28;20199;-70
2022/08/13 05:51:48;;;;;;;10.03;7.33;;;15.00;99.90;16.40;96746.00;;;;5085522;22;20247;-74
2022/08/13 05:54:39;;;;;;;7.97;7.17;;;15.10;99.90;16.20;96749.00;;;;5067624;28;20200;-74
2022/08/13 05:57:28;;;;;;;7.37;6.67;;;15.00;99.90;16.40;96754.00;;;;5063953;28;20212;-72
2022/08/13 06:03:24;;;;;;;7.73;6.93;;;15.10;99.90;16.50;96751.00;;;;5047773;28;20216;-72
2022/08/13 06:06:16;;;;;;;7.30;6.63;;;15.10;99.90;16.50;96745.00;;;;5042982;28;20209;-74
2022/08/13 06:09:07;;;;;;;7.03;6.33;;;15.20;99.90;16.30;96743.00;;;;5040545;28;20667;-72
2022/08/13 06:11:59;;;;;;;8.70;7.40;;;15.10;99.90;16.60;96744.00;;;;5049775;28;20230;-73
2022/08/13 06:14:50;;;;;;;7.47;6.77;;;15.20;99.90;16.60;96747.00;;;;5047168;28;20702;-73
2022/08/13 06:17:39;;;;;;;8.03;7.33;;;15.20;99.90;16.70;96749.00;;;;5041908;28;20698;-74
2022/08/13 06:20:29;;;;;;;8.03;7.23;;;15.30;99.90;16.70;96750.00;;;;5043725;28;20211;-74
2022/08/13 06:23:19;;;;;;;8.07;7.33;;;15.30;99.90;16.40;96735.00;;;;5044326;28;20228;-74
2022/08/13 06:26:11;;;;;;;6.97;6.27;;;15.30;99.90;16.50;96731.00;;;;5048103;28;20716;-76
2022/08/13 06:29:02;;;;;;;7.13;6.50;;;15.30;99.90;16.30;96733.00;;;;5046146;28;20196;-74
2022/08/13 06:31:51;;;;;;;7.90;6.53;;;14.40;99.90;16.20;96726.00;;;;5041384;28;20717;-74
2022/08/13 06:34:41;;;;;;;6.13;5.53;;;15.30;99.90;16.60;96722.00;;;;5044936;28;20197;-74
2022/08/13 06:37:30;;;;;;;7.27;6.57;;;15.30;99.90;16.80;96723.00;;;;5043540;28;20263;-75
2022/08/13 06:40:23;;;;;;;6.33;5.77;;;15.30;99.90;16.40;96718.00;;;;5042873;28;20208;-73
2022/08/13 06:43:18;;;;;;;7.00;5.87;;;15.40;99.90;16.30;96726.00;;;;5048143;28;20213;-74
2022/08/13 06:46:09;;;;;;;11.37;7.10;;;15.30;99.90;16.80;96727.00;;;;5042442;28;20235;-74
2022/08/13 06:49:00;;;;;;;6.60;5.87;;;15.40;99.90;16.70;96741.00;;;;5045657;28;20218;-75
2022/08/13 06:51:49;;;;;;;6.10;5.37;;;15.40;99.90;16.60;96725.00;;;;5032092;28;20236;-74
2022/08/13 06:54:37;;;;;;;6.17;5.07;;;15.40;99.90;16.50;96729.00;;;;5040298;28;20212;-75
2022/08/13 06:57:30;;;;;;;6.70;5.40;;;15.40;99.90;16.60;96730.00;;;;5041199;28;20204;-75
2022/08/13 07:00:20;;;;;;;5.30;4.80;;;15.40;99.90;16.60;96734.00;;;;5046962;28;20212;-74
2022/08/13 07:03:10;;;;;;;6.40;5.63;;;15.40;99.90;16.80;96725.00;;;;5041046;28;20585;-75
2022/08/13 07:06:00;;;;;;;5.67;4.60;;;15.50;99.90;16.50;96713.00;;;;5033248;28;20229;-74
2022/08/13 07:08:49;;;;;;;6.00;5.50;;;15.50;99.90;17.00;96707.00;;;;5026472;28;20671;-74
2022/08/13 07:11:43;;;;;;;6.50;5.60;;;15.60;99.90;17.40;96720.00;;;;5026335;28;20225;-74
2022/08/13 07:14:32;;;;;;;5.93;5.33;;;15.70;99.90;17.00;96706.00;;;;5036260;28;20410;-74
2022/08/13 07:17:23;;;;;;;5.83;5.33;;;15.80;99.90;17.50;96701.00;;;;5026840;28;20204;-75
2022/08/13 07:20:13;;;;;;;5.40;5.00;;;16.00;99.90;17.90;96721.00;;;;5040976;28;20563;-74
2022/08/13 07:23:02;;;;;;;5.63;5.13;;;16.10;99.90;18.10;96720.00;;;;5042997;28;20286;-74
2022/08/13 07:25:53;;;;;;;5.30;4.80;;;16.30;99.90;18.40;96728.00;;;;5043582;28;20727;-76
2022/08/13 07:28:44;;;;;;;5.93;5.13;;;16.50;99.90;18.50;96718.00;;;;5041848;28;20213;-75
2022/08/13 07:31:39;;;;;;;5.07;4.67;;;16.70;99.90;18.60;96729.00;;;;5038797;28;20220;-74
2022/08/13 07:34:31;;;;;;;5.80;4.67;;;16.80;99.90;18.70;96722.00;;;;5046103;28;20201;-76
2022/08/13 07:37:22;;;;;;;7.60;4.70;;;17.00;99.90;18.90;96715.00;;;;5048757;28;20200;-75
2022/08/13 07:40:12;;;;;;;5.20;4.80;;;17.10;99.90;19.10;96716.00;;;;5041613;28;20224;-75
2022/08/13 07:43:04;;;;;;;4.50;4.10;;;17.30;99.90;19.10;96713.00;;;;5046201;28;20247;-75
2022/08/13 07:46:07;;;;;;;4.57;4.17;;;17.40;99.90;19.00;96706.00;;;;5047752;28;20243;-74
2022/08/13 07:48:56;;;;;;;4.67;4.23;;;17.40;99.90;19.00;96705.00;;;;5044984;28;20197;-74
2022/08/13 07:51:46;;;;;;;3.60;3.30;;;17.50;99.90;19.00;96708.00;;;;5047886;28;20228;-75
2022/08/13 07:54:36;;;;;;;3.20;2.97;;;17.60;99.90;18.90;96708.00;;;;5046070;28;20204;-75
2022/08/13 07:57:29;;;;;;;4.40;3.23;;;17.50;99.90;19.00;96702.00;;;;5047922;28;20200;-75
2022/08/13 08:00:21;;;;;;;4.20;3.80;;;17.60;99.90;19.10;96709.00;;;;5045419;28;20193;-76
2022/08/13 08:03:10;;;;;;;4.00;3.70;;;17.60;99.90;19.10;96699.00;;;;5045923;28;20220;-75
2022/08/13 08:06:03;;;;;;;3.63;3.37;;;17.60;99.90;19.10;96707.00;;;;5036682;28;20224;-75
2022/08/13 08:08:53;;;;;;;4.07;3.67;;;17.60;99.90;19.10;96709.00;;;;5046355;28;20205;-75
2022/08/13 08:14:50;;;;;;;4.40;3.53;;;17.60;99.90;19.10;96722.00;;;;5043650;28;20197;-75
2022/08/13 08:17:40;;;;;;;4.23;3.83;;;17.60;99.90;18.50;96727.00;;;;5048607;28;20205;-75
2022/08/13 08:20:29;;;;;;;4.87;4.37;;;17.60;99.90;18.50;96726.00;;;;5029569;28;20207;-74
2022/08/13 08:23:19;;;;;;;6.00;5.50;;;17.40;99.90;18.60;96734.00;;;;5047308;28;20699;-75
2022/08/13 08:26:09;;;;;;;5.43;4.93;;;17.40;99.90;18.50;96727.00;;;;5048785;28;20227;-75
2022/08/13 08:29:05;;;;;;;4.80;4.07;;;17.30;99.90;18.60;96727.00;;;;5046790;28;20197;-75
2022/08/13 08:31:54;;;;;;;4.80;4.43;;;17.30;99.90;18.60;96732.00;;;;5033746;28;20221;-75
2022/08/13 08:34:46;;;;;;;5.27;4.30;;;17.30;99.90;18.70;96733.00;;;;5042651;28;20691;-75
2022/08/13 08:43:51;;;;;;;6.43;5.77;;;17.40;99.90;18.80;96745.00;;;;5037843;28;20208;-75
2022/08/13 08:46:41;;;;;;;6.73;4.70;;;17.40;99.90;18.90;96745.00;;;;5041998;28;20221;-75
2022/08/13 08:49:31;;;;;;;4.80;3.93;;;17.40;99.90;18.80;96741.00;;;;5048458;28;20200;-75
2022/08/13 08:52:19;;;;;;;4.90;3.83;;;17.40;99.90;18.80;96747.00;;;;5046800;28;20251;-74
2022/08/13 08:55:09;;;;;;;5.30;4.70;;;17.40;99.90;18.70;96751.00;;;;5044345;28;20200;-75
2022/08/13 08:57:58;;;;;;;4.70;4.30;;;17.40;99.90;18.70;96747.00;;;;5046920;28;20197;-76
2022/08/13 09:00:59;;;;;;;4.93;4.40;;;17.30;99.90;18.80;96743.00;;;;5047686;28;20211;-75
2022/08/13 09:03:49;;;;;;;3.73;3.43;;;17.40;99.90;18.30;96731.00;;;;5047601;28;20205;-75
2022/08/13 09:06:38;;;;;;;5.27;4.03;;;17.30;99.90;18.60;96743.00;;;;5041690;28;20217;-75
2022/08/13 09:09:27;;;;;;;4.27;3.87;;;17.30;99.90;18.90;96743.00;;;;5051927;28;20235;-74
2022/08/13 09:12:16;;;;;;;4.20;3.90;;;17.30;99.90;19.10;96751.00;;;;5042431;28;20216;-75
2022/08/13 09:15:07;;;;;;;3.37;3.17;;;17.40;99.90;19.20;96746.00;;;;5043977;28;20194;-75
2022/08/13 09:17:58;;;;;;;4.37;4.07;;;17.50;99.90;19.50;96742.00;;;;5046190;28;20579;-75
2022/08/13 09:20:49;;;;;;;4.50;4.10;;;17.70;99.90;19.70;96729.00;;;;5052277;28;20222;-75
2022/08/13 09:23:47;;;;;;;4.47;3.70;;;17.90;99.90;20.30;96726.00;;;;5044559;28;20204;-74
2022/08/13 09:26:36;;;;;;;5.60;3.77;;;18.20;99.90;20.80;96733.00;;;;5036414;28;20224;-75
2022/08/13 09:29:25;;;;;;;4.00;3.70;;;18.60;99.90;20.70;96732.00;;;;5044726;28;20197;-75
2022/08/13 09:32:16;;;;;;;4.60;4.00;;;18.80;99.90;21.00;96742.00;;;;5048757;28;20220;-75
2022/08/13 09:35:07;;;;;;;5.87;4.63;;;19.00;99.90;21.10;96734.00;;;;5049940;28;20201;-75
2022/08/13 09:37:59;;;;;;;4.33;3.53;;;19.20;99.90;21.20;96742.00;;;;5050735;28;20216;-76
2022/08/13 09:40:56;;;;;;;4.87;4.43;;;19.30;99.90;21.10;96749.00;;;;5050647;28;20197;-75
2022/08/13 09:43:50;;;;;;;3.90;3.50;;;19.50;99.90;21.10;96751.00;;;;5045720;28;20215;-75
2022/08/13 09:46:40;;;;;;;3.83;3.53;;;19.50;99.90;21.00;96753.00;;;;5050241;28;20840;-75
2022/08/13 09:49:31;;;;;;;6.73;3.43;;;19.50;99.90;20.80;96751.00;;;;5050792;28;20200;-75
2022/08/13 09:52:20;;;;;;;3.73;3.43;;;19.40;99.90;20.70;96758.00;;;;5049253;28;20236;-75
2022/08/13 09:55:11;;;;;;;3.60;3.30;;;19.30;99.90;20.70;96751.00;;;;5046453;28;20201;-75
2022/08/13 09:58:01;;;;;;;4.87;4.27;;;19.30;99.90;20.70;96756.00;;;;5047091;28;20227;-75
2022/08/13 10:00:50;;;;;;;4.17;3.80;;;19.20;99.90;20.60;96753.00;;;;5049556;28;20201;-75
2022/08/13 10:03:40;;;;;;;5.43;3.50;;;19.20;99.90;20.40;96770.00;;;;5050677;28;20211;-75
2022/08/13 10:06:29;;;;;;;3.33;2.97;;;19.20;99.90;20.60;96767.00;;;;5041583;28;20235;-75
2022/08/13 10:09:18;;;;;;;3.80;3.50;;;19.10;99.90;20.50;96763.00;;;;5050182;28;20220;-75
2022/08/13 10:12:11;;;;;;;4.37;4.00;;;19.10;99.90;20.50;96767.00;;;;5041237;28;20222;-75
2022/08/13 10:15:00;;;;;;;4.27;3.73;;;19.10;99.90;20.50;96769.00;;;;5046327;28;20196;-75
2022/08/13 10:17:52;;;;;;;4.40;3.47;;;19.00;99.90;20.60;96772.00;;;;5049603;28;20203;-75
2022/08/13 10:20:45;;;;;;;3.73;3.33;;;19.00;99.90;20.80;96764.00;;;;5024976;28;20209;-75
2022/08/13 10:23:34;;;;;;;3.90;3.60;;;19.10;99.90;20.90;96768.00;;;;5043268;28;20207;-75
2022/08/13 10:26:23;;;;;;;4.97;4.43;;;19.20;99.90;21.10;96772.00;;;;5046476;28;20224;-75
2022/08/13 10:29:13;;;;;;;3.80;3.50;;;19.30;99.90;21.30;96775.00;;;;5047796;28;20212;-75
2022/08/13 10:32:02;;;;;;;3.77;3.47;;;19.40;99.90;21.50;96771.00;;;;5048192;28;20225;-74
2022/08/13 10:34:51;;;;;;;4.20;3.43;;;19.50;99.90;21.60;96761.00;;;;5045413;28;20197;-76
2022/08/13 10:37:49;;;;;;;5.30;3.50;;;19.70;99.90;21.80;96772.00;;;;5044004;28;20221;-75
2022/08/13 10:40:38;;;;;;;4.60;4.20;;;19.90;99.90;21.70;96777.00;;;;5050240;28;20581;-75
2022/08/13 10:43:27;;;;;;;6.87;6.17;;;20.00;99.90;21.60;96772.00;;;;5049243;28;20215;-75
2022/08/13 10:46:20;;;;;;;7.17;3.60;;;20.00;99.90;21.70;96772.00;;;;5044594;28;20566;-75
2022/08/13 10:49:13;;;;;;;4.17;3.77;;;20.00;99.90;21.70;96769.00;;;;5037536;28;20259;-75
2022/08/13 10:52:02;;;;;;;3.93;3.60;;;20.00;99.90;21.50;96769.00;;;;5041201;28;20227;-75
2022/08/13 10:54:52;;;;;;;4.10;3.70;;;20.10;99.90;21.60;96771.00;;;;5033385;28;20217;-75
2022/08/13 10:57:43;;;;;;;5.20;3.53;;;20.00;99.90;21.80;96768.00;;;;5038242;28;20193;-75
2022/08/13 11:00:32;;;;;;;3.33;3.03;;;20.10;99.90;21.80;96770.00;;;;5043206;28;20259;-75
2022/08/13 11:03:22;;;;;;;4.37;3.23;;;20.10;99.90;21.80;96772.00;;;;5034472;28;20676;-75
2022/08/13 11:06:12;;;;;;;3.13;2.83;;;20.20;99.90;21.90;96773.00;;;;5036906;28;20211;-75
2022/08/13 11:09:00;;;;;;;6.17;4.73;;;20.20;99.90;21.90;96765.00;;;;5040502;28;20201;-75
2022/08/13 11:11:49;;;;;;;5.00;3.80;;;20.20;99.90;22.00;96770.00;;;;5036752;28;20726;-76
2022/08/13 11:14:41;;;;;;;3.67;3.33;;;20.30;99.90;22.20;96773.00;;;;5038753;28;20200;-76
2022/08/13 11:17:30;;;;;;;3.70;3.40;;;20.40;99.90;22.60;96761.00;;;;5040998;28;20209;-75
2022/08/13 11:20:24;;;;;;;3.53;3.23;;;20.50;99.90;22.40;96764.00;;;;5036576;28;20290;-75
2022/08/13 11:23:13;;;;;;;3.80;3.50;;;20.70;99.90;22.40;96762.00;;;;5034881;28;20236;-75
2022/08/13 11:26:02;;;;;;;3.70;3.40;;;20.80;99.90;22.10;96764.00;;;;5037163;28;20192;-75
2022/08/13 11:28:51;;;;;;;3.17;2.87;;;20.80;99.90;22.30;96769.00;;;;5039349;28;20208;-74
2022/08/13 11:31:40;;;;;;;4.67;3.80;;;20.70;99.90;22.60;96761.00;;;;5048047;28;20235;-75
2022/08/13 11:34:29;;;;;;;3.90;3.50;;;20.80;99.90;22.70;96771.00;;;;5043310;28;20206;-75
2022/08/13 11:37:19;;;;;;;4.43;4.03;;;21.00;99.90;23.20;96768.00;;;;5039609;28;20201;-75
2022/08/13 11:40:09;;;;;;;4.87;3.30;;;21.10;99.90;23.40;96761.00;;;;5047941;28;20201;-75
2022/08/13 11:42:58;;;;;;;4.00;3.70;;;21.30;99.90;21.70;96740.00;;;;5047406;28;20691;-71
2022/08/13 11:45:49;;;;;;;4.73;4.33;;;21.30;99.90;21.40;96739.00;;;;5038740;28;20212;-74
2022/08/13 11:48:39;;;;;;;4.73;4.30;;;21.00;99.90;21.70;96730.00;;;;5040891;28;20220;-76
2022/08/13 11:53:57;;;;;;;5.50;3.70;;;20.80;99.90;21.30;96729.00;;;;5130216;23;20238;-68
2022/08/13 11:56:46;;;;;;;6.20;3.80;;;20.80;99.90;22.10;96752.00;;;;5118192;27;20605;-74
2022/08/13 11:59:35;;;;;;;4.20;3.80;;;20.90;99.90;22.10;96759.00;;;;5129252;27;20198;-69
2022/08/13 12:02:23;;;;;;;3.53;3.23;;;20.90;99.90;22.20;96763.00;;;;5115996;27;21052;-70
2022/08/13 12:05:12;;;;;;;3.73;3.43;;;21.00;99.90;21.80;96757.00;;;;5097374;28;20202;-71
2022/08/13 12:08:02;;;;;;;3.47;3.17;;;21.00;99.90;22.00;96764.00;;;;5100411;28;20215;-70
2022/08/13 12:10:52;;;;;;;3.47;3.20;;;21.00;99.90;23.40;96773.00;;;;5077294;28;20195;-71
2022/08/13 12:13:41;;;;;;;3.97;3.60;;;21.10;99.90;24.10;96757.00;;;;5104608;28;20222;-70
2022/08/13 12:16:30;;;;;;;3.60;3.30;;;21.50;99.90;23.70;96746.00;;;;5098550;28;20628;-71
2022/08/13 12:19:19;;;;;;;4.23;3.83;;;22.00;99.90;23.80;96746.00;;;;5094623;28;20199;-71
2022/08/13 12:22:08;;;;;;;3.67;3.37;;;22.20;99.90;25.40;96742.00;;;;5086360;28;20218;-71
2022/08/13 12:24:57;;;;;;;3.30;3.00;;;22.60;99.90;26.00;96741.00;;;;5077613;28;20582;-71
2022/08/13 12:28:15;;;;;;;3.67;3.40;;;23.20;99.90;25.60;96755.00;;;;5074862;28;20244;-70
2022/08/13 12:31:07;;;;;;;3.93;3.20;;;23.50;99.90;23.90;96729.00;;;;5096817;28;20199;-70
2022/08/13 12:33:56;;;;;;;4.97;3.47;;;23.40;99.90;22.30;96733.00;;;;5084357;28;20213;-69
2022/08/13 12:36:44;;;;;;;5.00;3.17;;;22.80;99.90;21.60;96725.00;;;;5095871;28;20203;-70
2022/08/13 12:39:33;;;;;;;2.70;2.50;;;22.20;99.90;22.10;96732.00;;;;5075213;28;20198;-72
2022/08/13 12:42:23;;;;;;;5.33;2.60;;;21.70;99.90;22.10;96728.00;;;;5100826;28;20222;-74
2022/08/13 12:45:14;;;;;;;3.13;2.87;;;21.50;99.90;21.90;96729.00;;;;5105884;28;20194;-72
2022/08/13 12:48:07;;;;;;;3.53;3.23;;;21.30;99.90;22.10;96739.00;;;;5100063;28;20215;-70
2022/08/13 12:50:56;;;;;;;3.27;2.97;;;21.30;99.90;22.10;96721.00;;;;5093707;28;20573;-68
2022/08/13 12:53:45;;;;;;;2.93;2.73;;;21.30;99.90;21.90;96714.00;;;;5101943;28;20230;-73
2022/08/13 12:56:41;;;;;;;2.70;2.50;;;21.20;99.90;21.80;96726.00;;;;5106794;28;20197;-67
2022/08/13 12:59:30;;;;;;;2.70;2.50;;;21.10;99.90;22.20;96726.00;;;;5103978;28;20209;-70